Time;durP1;ratioP1;P1;durP2;ratioP2;P2;SDS_P1;SDS_P2;PMS_P1;PMS_P2;Temp;Humidity;BMP_temperature;BMP_pressure;BME280_temperature;BME280_humidity;BME280_pressure;Samples;Min_cycle;Max_cycle;Signal;HPM_P1;HPM_P2
2022/12/06 06:41:21;;;;;;;;;0.00;0.00;;;;;;;;5057435;28;8946;-91
2022/12/06 06:43:46;;;;;;;;;0.00;0.00;;;;;;;;5049920;28;8828;-94
2022/12/06 06:46:11;;;;;;;;;0.00;0.00;;;;;;;;5060731;28;8854;-89
2022/12/06 06:48:38;;;;;;;;;0.00;0.00;;;;;;;;5059056;28;9025;-89
2022/12/06 06:51:04;;;;;;;;;0.00;0.00;;;;;;;;5059830;28;8794;-90
2022/12/06 06:53:30;;;;;;;;;0.00;0.00;;;;;;;;5058107;28;8791;-90
2022/12/06 06:55:55;;;;;;;;;0.00;0.00;;;;;;;;5051741;28;8861;-90
2022/12/06 06:58:21;;;;;;;;;0.00;0.00;;;;;;;;5052202;28;8775;-90
2022/12/06 07:00:50;;;;;;;;;10.00;10.00;;;;;;;;5051967;28;8997;-89
2022/12/06 07:03:15;;;;;;;;;0.00;0.00;;;;;;;;5052860;28;8853;-89
2022/12/06 07:05:42;;;;;;;;;0.00;0.00;;;;;;;;5053040;28;8799;-86
2022/12/06 07:08:07;;;;;;;;;0.00;0.00;;;;;;;;5052987;28;8802;-91
2022/12/06 07:10:32;;;;;;;;;0.00;0.00;;;;;;;;5034671;28;8806;-90
2022/12/06 07:12:57;;;;;;;;;0.00;0.00;;;;;;;;5071806;28;8816;-90
2022/12/06 07:15:22;;;;;;;;;0.00;0.00;;;;;;;;5073157;28;9143;-90
2022/12/06 07:17:50;;;;;;;;;0.00;0.00;;;;;;;;5071645;28;10105;-90
2022/12/06 07:20:15;;;;;;;;;0.00;0.00;;;;;;;;5071684;28;9791;-90
2022/12/06 07:22:40;;;;;;;;;0.00;0.00;;;;;;;;5072582;28;8808;-89
2022/12/06 07:25:06;;;;;;;;;0.00;0.00;;;;;;;;5070774;28;9523;-89
2022/12/06 07:27:37;;;;;;;;;0.00;0.00;;;;;;;;5072340;28;8811;-89
2022/12/06 07:30:06;;;;;;;;;3.00;3.00;;;;;;;;5059402;28;8781;-93
2022/12/06 07:32:35;;;;;;;;;0.00;0.00;;;;;;;;5063839;28;8813;-94
2022/12/06 07:35:00;;;;;;;;;0.00;0.00;;;;;;;;5059237;28;8820;-93
2022/12/06 07:37:26;;;;;;;;;0.00;0.00;;;;;;;;5057098;28;8796;-94
2022/12/06 07:39:51;;;;;;;;;0.00;0.00;;;;;;;;5056339;28;8847;-95
2022/12/06 07:45:00;;;;;;;;;0.00;0.00;;;;;;;;5064118;28;8835;-93
2022/12/06 07:47:26;;;;;;;;;0.00;0.00;;;;;;;;5053635;28;9364;-95
2022/12/06 07:49:52;;;;;;;;;0.00;0.00;;;;;;;;5058955;28;8838;-96
2022/12/06 07:52:17;;;;;;;;;0.00;0.00;;;;;;;;5061896;28;8746;-96
2022/12/06 07:54:43;;;;;;;;;0.00;0.00;;;;;;;;5061177;28;8811;-96
2022/12/06 07:57:08;;;;;;;;;6.00;6.00;;;;;;;;5059624;28;8894;-96
2022/12/06 07:59:34;;;;;;;;;0.00;0.00;;;;;;;;5060097;28;8838;-95
2022/12/06 08:01:59;;;;;;;;;5.00;5.00;;;;;;;;5061406;28;9779;-94
2022/12/06 08:04:24;;;;;;;;;0.00;0.00;;;;;;;;5060810;28;8819;-95
2022/12/06 08:06:49;;;;;;;;;0.00;0.00;;;;;;;;5055888;28;8822;-94
2022/12/06 08:09:15;;;;;;;;;0.00;0.00;;;;;;;;5054250;28;8826;-95
2022/12/06 08:11:40;;;;;;;;;0.00;0.00;;;;;;;;5051886;28;8810;-96
2022/12/06 08:14:05;;;;;;;;;0.00;0.00;;;;;;;;5052820;28;8841;-95
2022/12/06 08:16:30;;;;;;;;;0.00;0.00;;;;;;;;5051797;28;8815;-94
2022/12/06 08:18:56;;;;;;;;;0.00;0.00;;;;;;;;5036882;28;8832;-95
2022/12/06 08:21:21;;;;;;;;;15.00;13.50;;;;;;;;5050802;28;9195;-96
2022/12/06 08:23:46;;;;;;;;;0.00;0.00;;;;;;;;5050330;28;8834;-94
2022/12/06 08:26:15;;;;;;;;;4.00;4.00;;;;;;;;5059167;28;8817;-95
2022/12/06 08:28:42;;;;;;;;;0.00;0.00;;;;;;;;5046658;28;9751;-94
2022/12/06 08:31:11;;;;;;;;;0.33;0.33;;;;;;;;5058335;28;8812;-90
2022/12/06 08:33:37;;;;;;;;;3.67;3.67;;;;;;;;5035725;28;8920;-92
2022/12/06 08:36:10;;;;;;;;;0.00;0.00;;;;;;;;5061139;28;8843;-95
2022/12/06 08:38:35;;;;;;;;;0.00;0.00;;;;;;;;5049583;28;8818;-94
2022/12/06 08:41:01;;;;;;;;;3.00;3.00;;;;;;;;5035966;28;8843;-94
2022/12/06 08:43:26;;;;;;;;;0.00;0.00;;;;;;;;5035570;28;8827;-96
2022/12/06 08:45:51;;;;;;;;;0.00;0.00;;;;;;;;5045909;28;8851;-90
2022/12/06 08:48:16;;;;;;;;;1.00;1.00;;;;;;;;5050617;28;8807;-94
2022/12/06 08:50:42;;;;;;;;;0.00;0.00;;;;;;;;5033770;28;8807;-93
2022/12/06 08:53:07;;;;;;;;;0.00;0.00;;;;;;;;5050716;28;8831;-90
2022/12/06 08:55:32;;;;;;;;;0.00;0.00;;;;;;;;5049236;28;9979;-93
2022/12/06 08:57:57;;;;;;;;;0.00;0.00;;;;;;;;5047533;28;9920;-94
2022/12/06 09:00:22;;;;;;;;;0.00;0.00;;;;;;;;5045628;28;8822;-93
2022/12/06 09:02:48;;;;;;;;;0.00;0.00;;;;;;;;5051740;28;8807;-96
2022/12/06 09:05:13;;;;;;;;;0.00;0.00;;;;;;;;5031947;28;8822;-93
2022/12/06 09:07:38;;;;;;;;;3.00;3.00;;;;;;;;5037001;28;9149;-88
2022/12/06 09:10:04;;;;;;;;;0.00;0.00;;;;;;;;5049830;28;8904;-89
2022/12/06 09:12:29;;;;;;;;;0.00;0.00;;;;;;;;5031655;28;9578;-88
2022/12/06 09:14:54;;;;;;;;;0.00;0.00;;;;;;;;5049116;28;8901;-90
2022/12/06 09:17:20;;;;;;;;;0.00;0.00;;;;;;;;5030543;28;8838;-90
2022/12/06 09:19:45;;;;;;;;;0.00;0.00;;;;;;;;5040726;28;9393;-89
2022/12/06 09:22:10;;;;;;;;;2.00;2.00;;;;;;;;5049156;28;10274;-92
2022/12/06 09:24:35;;;;;;;;;0.00;0.00;;;;;;;;5049293;28;8835;-91
2022/12/06 09:27:00;;;;;;;;;0.00;0.00;;;;;;;;5050556;28;9656;-94
2022/12/06 09:29:26;;;;;;;;;0.00;0.00;;;;;;;;5032207;28;8825;-93
2022/12/06 09:31:52;;;;;;;;;0.00;0.00;;;;;;;;5054922;28;8937;-90
2022/12/06 09:34:18;;;;;;;;;0.00;0.00;;;;;;;;5025092;28;8822;-87
2022/12/06 09:37:05;;;;;;;;;0.00;0.00;;;;;;;;5048326;28;8815;-88
2022/12/06 09:39:33;;;;;;;;;0.00;0.00;;;;;;;;5049423;28;8828;-91
2022/12/06 09:41:58;;;;;;;;;0.00;0.00;;;;;;;;5030795;28;8809;-95
2022/12/06 09:44:42;;;;;;;;;0.00;0.00;;;;;;;;5039155;28;8832;-92
2022/12/06 09:47:13;;;;;;;;;0.00;0.00;;;;;;;;5036969;28;9963;-93
2022/12/06 09:50:00;;;;;;;;;0.00;0.00;;;;;;;;5052119;28;8787;-95
2022/12/06 09:52:55;;;;;;;;;0.00;0.00;;;;;;;;5044565;28;8810;-94
2022/12/06 09:55:38;;;;;;;;;0.00;0.00;;;;;;;;4951766;28;8826;-94
2022/12/06 09:58:12;;;;;;;;;0.00;0.00;;;;;;;;4951813;28;8821;-92
2022/12/06 10:00:46;;;;;;;;;0.00;0.00;;;;;;;;4958003;28;8818;-95
2022/12/06 10:03:14;;;;;;;;;0.00;0.00;;;;;;;;4954854;28;8805;-94
2022/12/06 10:05:42;;;;;;;;;0.00;0.00;;;;;;;;4954107;28;8785;-95
2022/12/06 10:08:26;;;;;;;;;0.00;0.00;;;;;;;;4951526;28;8806;-87
2022/12/06 10:10:57;;;;;;;;;0.00;0.00;;;;;;;;4948551;28;8852;-92
2022/12/06 10:13:24;;;;;;;;;0.00;0.00;;;;;;;;4947970;28;8830;-94
2022/12/06 10:15:50;;;;;;;;;0.00;0.00;;;;;;;;4952923;28;8767;-90
2022/12/06 10:18:19;;;;;;;;;0.00;0.00;;;;;;;;4963888;28;8840;-91
2022/12/06 10:20:52;;;;;;;;;4.00;4.00;;;;;;;;4957090;28;8826;-94
2022/12/06 10:23:23;;;;;;;;;0.00;0.00;;;;;;;;4934537;28;8810;-92
2022/12/06 10:26:03;;;;;;;;;12.00;12.00;;;;;;;;4949946;28;8835;-91
2022/12/06 10:28:38;;;;;;;;;0.00;0.00;;;;;;;;4953098;28;8826;-91
2022/12/06 10:31:12;;;;;;;;;4.00;4.00;;;;;;;;4980463;28;8818;-90
2022/12/06 10:33:49;;;;;;;;;13.00;13.00;;;;;;;;5030112;28;8830;-92
2022/12/06 10:36:17;;;;;;;;;0.00;0.00;;;;;;;;5047931;28;8817;-92
2022/12/06 10:41:16;;;;;;;;;0.00;0.00;;;;;;;;5106541;27;45386;-94
2022/12/06 10:43:41;;;;;;;;;0.00;0.00;;;;;;;;5098146;27;45700;-95
2022/12/06 10:49:25;;;;;;;;;0.00;0.00;;;;;;;;5090019;27;45390;-95
2022/12/06 10:52:12;;;;;;;;;0.00;0.00;;;;;;;;5089784;27;48422;-90
2022/12/06 10:54:46;;;;;;;;;0.00;0.00;;;;;;;;5106615;27;45583;-92
2022/12/06 10:57:20;;;;;;;;;27.00;27.00;;;;;;;;5092273;27;45359;-92
2022/12/06 10:59:53;;;;;;;;;0.00;0.00;;;;;;;;5092214;27;46065;-93
2022/12/06 11:02:21;;;;;;;;;0.00;0.00;;;;;;;;5100852;27;47974;-95
2022/12/06 11:04:50;;;;;;;;;0.00;0.00;;;;;;;;5095727;27;45377;-96
2022/12/06 11:07:22;;;;;;;;;0.00;0.00;;;;;;;;5095702;27;45668;-92
2022/12/06 11:09:49;;;;;;;;;0.00;0.00;;;;;;;;5089254;27;45441;-92
2022/12/06 11:12:14;;;;;;;;;0.00;0.00;;;;;;;;5090602;27;48310;-91
2022/12/06 11:14:45;;;;;;;;;0.50;0.50;;;;;;;;5096379;27;45385;-93
2022/12/06 11:17:16;;;;;;;;;0.00;0.00;;;;;;;;5099461;27;45445;-93
2022/12/06 11:19:44;;;;;;;;;0.00;0.00;;;;;;;;5097371;27;45481;-93
2022/12/06 11:22:24;;;;;;;;;0.33;0.33;;;;;;;;5105237;27;47193;-95
2022/12/06 11:24:53;;;;;;;;;3.00;3.00;;;;;;;;5107118;27;45317;-94
2022/12/06 11:27:23;;;;;;;;;6.00;6.00;;;;;;;;5086296;27;45415;-94
2022/12/06 11:29:49;;;;;;;;;0.00;0.00;;;;;;;;5126262;27;45930;-92
2022/12/06 11:32:15;;;;;;;;;0.00;0.00;;;;;;;;5100635;27;47186;-91
2022/12/06 11:34:42;;;;;;;;;0.00;0.00;;;;;;;;5090408;27;45486;-91
2022/12/06 11:37:15;;;;;;;;;6.33;6.33;;;;;;;;5094625;27;45561;-96
2022/12/06 11:39:41;;;;;;;;;0.00;0.00;;;;;;;;5095003;27;45018;-94
2022/12/06 11:42:07;;;;;;;;;4.00;2.33;;;;;;;;5098835;27;45712;-94
2022/12/06 11:44:52;;;;;;;;;0.00;0.00;;;;;;;;5101850;27;46714;-94
2022/12/06 11:47:20;;;;;;;;;0.00;0.00;;;;;;;;5095685;27;45373;-91
2022/12/06 11:49:46;;;;;;;;;0.00;0.00;;;;;;;;5091470;27;45339;-90
2022/12/06 11:52:14;;;;;;;;;0.00;0.00;;;;;;;;5078899;27;46221;-90
2022/12/06 11:54:58;;;;;;;;;0.00;0.00;;;;;;;;5074867;27;45450;-91
2022/12/06 11:57:30;;;;;;;;;0.00;0.00;;;;;;;;5075626;27;45852;-92
2022/12/06 12:00:05;;;;;;;;;0.00;0.00;;;;;;;;5098952;27;45361;-96
2022/12/06 12:02:30;;;;;;;;;18.00;18.00;;;;;;;;5085671;27;46059;-96
2022/12/06 12:05:06;;;;;;;;;0.00;0.00;;;;;;;;5079150;27;45862;-95
2022/12/06 12:07:33;;;;;;;;;0.00;0.00;;;;;;;;5091365;27;45416;-96
2022/12/06 12:10:00;;;;;;;;;0.00;0.00;;;;;;;;5072987;27;45889;-91
2022/12/06 12:13:42;;;;;;;;;4.00;4.00;;;;;;;;5087858;27;49281;-95
2022/12/06 12:15:19;;;;;;;;;0.00;0.00;;;;;;;;5081460;27;45407;-88
2022/12/06 12:17:46;;;;;;;;;0.00;0.00;;;;;;;;5086580;28;45514;-96
2022/12/06 12:20:19;;;;;;;;;0.00;0.00;;;;;;;;5096671;27;45546;-95
2022/12/06 12:22:45;;;;;;;;;0.00;0.00;;;;;;;;5099981;27;46303;-96
2022/12/06 12:25:42;;;;;;;;;0.00;0.00;;;;;;;;5090507;27;46237;-96
2022/12/06 12:28:23;;;;;;;;;0.00;0.00;;;;;;;;5082373;27;45614;-95
2022/12/06 12:30:55;;;;;;;;;18.00;18.00;;;;;;;;5075948;27;45528;-96
2022/12/06 12:33:21;;;;;;;;;0.00;0.00;;;;;;;;5089683;27;45470;-94
2022/12/06 12:35:48;;;;;;;;;0.00;0.00;;;;;;;;5078116;27;45469;-95
2022/12/06 12:38:35;;;;;;;;;0.00;0.00;;;;;;;;5123183;27;46680;-96
2022/12/06 12:41:04;;;;;;;;;0.00;0.00;;;;;;;;5111880;27;45525;-95
2022/12/06 12:43:30;;;;;;;;;0.00;0.00;;;;;;;;5093135;27;47048;-96
2022/12/06 12:46:04;;;;;;;;;0.00;0.00;;;;;;;;5087064;27;45623;-96
2022/12/06 12:48:29;;;;;;;;;0.00;0.00;;;;;;;;5090899;27;45367;-96
2022/12/06 12:50:56;;;;;;;;;0.00;0.00;;;;;;;;5108879;27;44956;-96
2022/12/06 12:53:27;;;;;;;;;0.00;0.00;;;;;;;;5101367;27;45408;-96
2022/12/06 12:56:04;;;;;;;;;0.00;0.00;;;;;;;;5100140;27;44732;-96
2022/12/06 12:58:29;;;;;;;;;0.00;0.00;;;;;;;;5100031;27;44808;-90
2022/12/06 13:00:57;;;;;;;;;0.00;0.00;;;;;;;;5987669;22;45906;-95
2022/12/06 13:06:01;;;;;;;;;0.00;0.00;;;;;;;;5514584;22;45909;-96
2022/12/06 13:08:30;;;;;;;;;0.00;0.00;;;;;;;;5030494;28;44799;-89
2022/12/06 13:10:57;;;;;;;;;0.00;0.00;;;;;;;;5020868;28;45502;-94
2022/12/06 13:13:46;;;;;;;;;7.00;7.00;;;;;;;;5035200;28;47907;-95
2022/12/06 13:16:13;;;;;;;;;0.00;0.00;;;;;;;;5033635;28;45304;-96
2022/12/06 13:18:45;;;;;;;;;0.00;0.00;;;;;;;;5032864;28;45292;-96
2022/12/06 13:21:13;;;;;;;;;0.00;0.00;;;;;;;;5025424;28;45807;-96
2022/12/06 13:23:40;;;;;;;;;0.00;0.00;;;;;;;;5028274;28;45624;-96
2022/12/06 13:26:15;;;;;;;;;0.00;0.00;;;;;;;;5034860;28;44808;-95
2022/12/06 13:28:43;;;;;;;;;0.00;0.00;;;;;;;;5038600;28;45934;-96
2022/12/06 13:31:14;;;;;;;;;0.00;0.00;;;;;;;;5032415;28;45580;-96
2022/12/06 13:33:43;;;;;;;;;0.00;0.00;;;;;;;;5018078;28;46176;-96
2022/12/06 13:36:11;;;;;;;;;0.00;0.00;;;;;;;;5026172;28;44742;-96
2022/12/06 13:38:37;;;;;;;;;0.00;0.00;;;;;;;;5033754;28;44772;-96
2022/12/06 13:44:48;;;;;;;;;0.00;0.00;;;;;;;;5034205;28;44967;-96
2022/12/06 13:47:26;;;;;;;;;0.00;0.00;;;;;;;;5020589;28;45554;-96
2022/12/06 13:49:52;;;;;;;;;0.00;0.00;;;;;;;;5037729;28;45524;-96
2022/12/06 13:52:36;;;;;;;;;0.00;0.00;;;;;;;;5019222;28;45391;-96
2022/12/06 13:55:19;;;;;;;;;2.00;2.00;;;;;;;;5017138;28;45705;-96
2022/12/06 13:57:45;;;;;;;;;0.00;0.00;;;;;;;;5015193;28;45492;-96
2022/12/06 14:00:30;;;;;;;;;0.00;0.00;;;;;;;;5017626;28;45493;-96
2022/12/06 14:03:14;;;;;;;;;0.00;0.00;;;;;;;;5010904;28;47008;-96
2022/12/06 14:05:59;;;;;;;;;0.00;0.00;;;;;;;;5008180;28;45392;-96
2022/12/06 14:08:31;;;;;;;;;0.00;0.00;;;;;;;;5024746;28;45434;-96
2022/12/06 14:11:03;;;;;;;;;0.00;0.00;;;;;;;;5040747;28;45486;-96
2022/12/06 14:13:29;;;;;;;;;2.00;2.00;;;;;;;;5020506;28;45482;-96
2022/12/06 14:15:54;;;;;;;;;0.00;0.00;;;;;;;;5020683;28;46560;-96
2022/12/06 14:18:24;;;;;;;;;0.00;0.00;;;;;;;;5032586;28;44757;-96
2022/12/06 14:20:51;;;;;;;;;0.00;0.00;;;;;;;;5035332;28;44811;-96
2022/12/06 14:23:26;;;;;;;;;0.00;0.00;;;;;;;;5038450;28;44936;-96
2022/12/06 14:26:09;;;;;;;;;0.00;0.00;;;;;;;;5027980;28;45470;-96
2022/12/06 14:28:37;;;;;;;;;0.00;0.00;;;;;;;;5038423;28;44713;-96
2022/12/06 14:31:06;;;;;;;;;0.00;0.00;;;;;;;;5031478;28;44822;-96
2022/12/06 14:33:31;;;;;;;;;0.00;0.00;;;;;;;;5026085;28;45955;-96
2022/12/06 14:35:57;;;;;;;;;0.00;0.00;;;;;;;;5024002;28;48007;-96
2022/12/06 14:38:24;;;;;;;;;0.00;0.00;;;;;;;;5021008;28;45320;-96
2022/12/06 14:43:34;;;;;;;;;0.00;0.00;;;;;;;;5022909;28;45388;-96
2022/12/06 14:46:01;;;;;;;;;0.00;0.00;;;;;;;;5019991;28;47196;-96
2022/12/06 14:50:22;;;;;;;;;0.00;0.00;;;;;;;;5038511;28;45463;-96
2022/12/06 14:51:17;;;;;;;;;0.00;0.00;;;;;;;;5016203;28;45312;-96
2022/12/06 14:53:42;;;;;;;;;0.00;0.00;;;;;;;;5025047;28;44866;-96
2022/12/06 14:56:40;;;;;;;;;0.00;0.00;;;;;;;;5025051;28;46191;-96
2022/12/06 14:59:09;;;;;;;;;0.00;0.00;;;;;;;;4984814;28;45418;-96
2022/12/06 15:01:44;;;;;;;;;0.00;0.00;;;;;;;;4985102;28;45430;-96
2022/12/06 15:04:22;;;;;;;;;0.00;0.00;;;;;;;;4983886;28;44849;-96
2022/12/06 15:06:52;;;;;;;;;0.00;0.00;;;;;;;;4993830;28;46214;-96
2022/12/06 15:09:20;;;;;;;;;0.00;0.00;;;;;;;;4980210;28;45547;-96
2022/12/06 15:14:38;;;;;;;;;0.00;0.00;;;;;;;;5000833;28;45393;-96
2022/12/06 15:17:09;;;;;;;;;0.00;0.00;;;;;;;;4998521;28;45351;-96
2022/12/06 15:19:39;;;;;;;;;0.00;0.00;;;;;;;;4989134;28;45481;-96
2022/12/06 15:22:13;;;;;;;;;0.00;0.00;;;;;;;;5007497;28;44846;-96
2022/12/06 15:24:38;;;;;;;;;0.00;0.00;;;;;;;;4991085;28;45217;-96
2022/12/06 15:27:03;;;;;;;;;0.00;0.00;;;;;;;;5009172;28;45270;-96
2022/12/06 15:29:28;;;;;;;;;0.00;0.00;;;;;;;;4995715;28;45360;-95
2022/12/06 15:31:54;;;;;;;;;0.00;0.00;;;;;;;;4991164;28;45673;-94
2022/12/06 15:34:30;;;;;;;;;0.00;0.00;;;;;;;;4994872;28;45549;-94
2022/12/06 15:36:56;;;;;;;;;0.00;0.00;;;;;;;;5019450;28;45685;-95
2022/12/06 15:39:22;;;;;;;;;0.00;0.00;;;;;;;;5022765;28;45281;-96
2022/12/06 15:41:47;;;;;;;;;0.00;0.00;;;;;;;;5028406;28;45827;-96
2022/12/06 15:44:13;;;;;;;;;0.00;0.00;;;;;;;;5024200;28;45309;-96
2022/12/06 15:46:39;;;;;;;;;0.00;0.00;;;;;;;;5025841;28;46244;-96
2022/12/06 15:49:04;;;;;;;;;0.00;0.00;;;;;;;;5023735;28;45453;-95
2022/12/06 15:51:30;;;;;;;;;0.00;0.00;;;;;;;;5022632;28;45537;-96
2022/12/06 15:53:56;;;;;;;;;0.00;0.00;;;;;;;;5022124;28;45632;-96
2022/12/06 15:56:22;;;;;;;;;0.00;0.00;;;;;;;;5025311;28;46383;-95
2022/12/06 15:58:48;;;;;;;;;0.00;0.00;;;;;;;;5023985;28;45324;-96
2022/12/06 16:01:14;;;;;;;;;0.00;0.00;;;;;;;;5023620;28;44838;-96
2022/12/06 16:03:39;;;;;;;;;0.00;0.00;;;;;;;;5027181;28;45617;-96
2022/12/06 16:06:09;;;;;;;;;0.00;0.00;;;;;;;;5029664;28;45359;-96
2022/12/06 16:08:34;;;;;;;;;0.00;0.00;;;;;;;;5030122;28;45293;-96
2022/12/06 16:10:59;;;;;;;;;0.00;0.00;;;;;;;;5028150;28;45868;-96
2022/12/06 16:13:25;;;;;;;;;0.00;0.00;;;;;;;;5022336;28;45937;-96
2022/12/06 16:15:51;;;;;;;;;0.00;0.00;;;;;;;;5024149;28;46444;-96
2022/12/06 16:18:18;;;;;;;;;0.00;0.00;;;;;;;;5024530;28;45511;-96
2022/12/06 16:20:43;;;;;;;;;0.00;0.00;;;;;;;;5024772;28;44856;-96
2022/12/06 16:25:56;;;;;;;;;0.00;0.00;;;;;;;;5025123;28;45302;-95
2022/12/06 16:28:21;;;;;;;;;6.00;6.00;;;;;;;;5028303;28;45317;-96
2022/12/06 16:30:46;;;;;;;;;0.00;0.00;;;;;;;;5027091;28;45652;-96
2022/12/06 16:33:16;;;;;;;;;0.00;0.00;;;;;;;;5031060;28;45269;-96
2022/12/06 16:35:41;;;;;;;;;0.00;0.00;;;;;;;;5028839;28;46365;-96
2022/12/06 16:38:25;;;;;;;;;0.00;0.00;;;;;;;;5033615;28;45304;-96
2022/12/06 16:40:50;;;;;;;;;0.00;0.00;;;;;;;;5047440;28;45362;-96
2022/12/06 16:43:16;;;;;;;;;0.00;0.00;;;;;;;;5029273;28;44980;-96
2022/12/06 16:45:42;;;;;;;;;0.00;0.00;;;;;;;;5027736;28;45600;-96
2022/12/06 16:48:12;;;;;;;;;0.00;0.00;;;;;;;;5025606;28;44796;-96
2022/12/06 16:50:37;;;;;;;;;0.00;0.00;;;;;;;;5015381;28;44764;-96
2022/12/06 16:53:02;;;;;;;;;0.00;0.00;;;;;;;;5023543;28;44968;-96
2022/12/06 16:55:28;;;;;;;;;0.00;0.00;;;;;;;;5021666;28;45362;-96
2022/12/06 16:57:53;;;;;;;;;0.00;0.00;;;;;;;;5026662;28;44769;-96
2022/12/06 17:00:18;;;;;;;;;0.00;0.00;;;;;;;;5024146;28;45447;-96
2022/12/06 17:02:44;;;;;;;;;0.00;0.00;;;;;;;;5026566;28;45263;-96
2022/12/06 17:05:15;;;;;;;;;0.00;0.00;;;;;;;;5039147;28;46328;-96
2022/12/06 17:07:40;;;;;;;;;0.00;0.00;;;;;;;;5022193;28;45470;-96
2022/12/06 17:10:06;;;;;;;;;0.00;0.00;;;;;;;;5030850;28;45471;-96
2022/12/06 17:12:31;;;;;;;;;22.00;22.00;;;;;;;;5025524;28;45494;-96
2022/12/06 17:14:57;;;;;;;;;0.00;0.00;;;;;;;;5026135;28;47812;-95
2022/12/06 17:17:24;;;;;;;;;0.00;0.00;;;;;;;;5023518;28;45521;-96
2022/12/06 17:19:50;;;;;;;;;0.00;0.00;;;;;;;;5030192;28;44741;-96
2022/12/06 17:22:15;;;;;;;;;0.00;0.00;;;;;;;;5045918;28;44861;-96
2022/12/06 17:24:40;;;;;;;;;0.00;0.00;;;;;;;;5032665;28;47054;-96
2022/12/06 17:27:07;;;;;;;;;0.00;0.00;;;;;;;;5032130;28;44965;-96
2022/12/06 17:29:33;;;;;;;;;0.00;0.00;;;;;;;;5031703;28;44787;-96
2022/12/06 17:31:58;;;;;;;;;0.00;0.00;;;;;;;;5038955;28;44820;-96
2022/12/06 17:34:24;;;;;;;;;0.00;0.00;;;;;;;;5049148;28;46222;-96
2022/12/06 17:36:49;;;;;;;;;0.00;0.00;;;;;;;;5033973;28;44764;-95
2022/12/06 17:39:18;;;;;;;;;0.00;0.00;;;;;;;;5374233;22;45219;-96
2022/12/06 17:44:28;;;;;;;;;0.00;0.00;;;;;;;;5062725;28;44930;-96
2022/12/06 17:46:53;;;;;;;;;0.00;0.00;;;;;;;;5060338;28;45376;-96
2022/12/06 17:49:20;;;;;;;;;0.00;0.00;;;;;;;;5070668;28;44789;-96
2022/12/06 17:51:45;;;;;;;;;0.00;0.00;;;;;;;;5072990;28;45466;-96
2022/12/06 17:54:14;;;;;;;;;0.00;0.00;;;;;;;;5064113;28;45482;-96
2022/12/06 17:56:41;;;;;;;;;1.00;1.00;;;;;;;;5059439;28;44826;-96
2022/12/06 17:59:07;;;;;;;;;0.00;0.00;;;;;;;;5063783;28;45248;-96
2022/12/06 18:01:33;;;;;;;;;0.00;0.00;;;;;;;;5053083;28;45661;-96
2022/12/06 18:04:00;;;;;;;;;0.00;0.00;;;;;;;;5048998;28;46916;-95
2022/12/06 18:06:27;;;;;;;;;0.00;0.00;;;;;;;;5052479;28;45831;-94
2022/12/06 18:08:52;;;;;;;;;0.33;0.33;;;;;;;;5045817;28;45462;-94
2022/12/06 18:11:18;;;;;;;;;0.00;0.00;;;;;;;;5044140;28;45461;-95
2022/12/06 18:13:43;;;;;;;;;0.00;0.00;;;;;;;;5060184;28;45399;-95
2022/12/06 18:16:19;;;;;;;;;0.00;0.00;;;;;;;;5079473;28;45736;-96
2022/12/06 18:18:45;;;;;;;;;0.00;0.00;;;;;;;;5081291;28;9827;-94
2022/12/06 18:21:12;;;;;;;;;0.00;0.00;;;;;;;;5092111;28;9712;-96
2022/12/06 18:23:38;;;;;;;;;0.00;0.00;;;;;;;;5089779;28;17967;-95
2022/12/06 18:26:04;;;;;;;;;0.00;0.00;;;;;;;;5093283;28;40394;-96
2022/12/06 18:28:30;;;;;;;;;0.00;0.00;;;;;;;;5098208;28;8797;-94
2022/12/06 18:30:55;;;;;;;;;3.00;3.00;;;;;;;;5085970;28;8849;-92
2022/12/06 18:33:20;;;;;;;;;0.00;0.00;;;;;;;;5092215;28;45551;-94
2022/12/06 18:35:45;;;;;;;;;0.00;0.00;;;;;;;;5056090;28;45249;-94
2022/12/06 18:38:10;;;;;;;;;4.67;4.67;;;;;;;;5047415;28;45202;-93
2022/12/06 18:40:36;;;;;;;;;2.67;2.67;;;;;;;;5062605;28;45451;-94
2022/12/06 18:43:01;;;;;;;;;0.00;0.00;;;;;;;;5079151;28;44114;-95
2022/12/06 18:45:26;;;;;;;;;0.00;0.00;;;;;;;;5080003;28;8820;-94
2022/12/06 18:47:52;;;;;;;;;0.00;0.00;;;;;;;;5086077;28;8837;-96
2022/12/06 18:50:17;;;;;;;;;0.00;0.00;;;;;;;;5067957;28;45423;-93
2022/12/06 18:52:42;;;;;;;;;0.00;0.00;;;;;;;;5047983;28;48087;-92
2022/12/06 18:55:07;;;;;;;;;17.67;17.67;;;;;;;;5041577;28;45543;-95
2022/12/06 18:57:36;;;;;;;;;1.00;1.00;;;;;;;;5048982;28;45335;-95
2022/12/06 19:00:03;;;;;;;;;0.00;0.00;;;;;;;;5065134;28;45469;-95
2022/12/06 19:02:28;;;;;;;;;0.00;0.00;;;;;;;;5079471;28;47395;-96
2022/12/06 19:04:53;;;;;;;;;0.00;0.00;;;;;;;;5092297;28;8851;-95
2022/12/06 19:07:18;;;;;;;;;0.00;0.00;;;;;;;;5079234;28;9401;-96
2022/12/06 19:09:44;;;;;;;;;0.00;0.00;;;;;;;;5087428;28;13582;-95
2022/12/06 19:12:18;;;;;;;;;0.00;0.00;;;;;;;;5092490;28;29856;-96
2022/12/06 19:14:43;;;;;;;;;0.00;0.00;;;;;;;;5089423;28;8930;-95
2022/12/06 19:17:11;;;;;;;;;0.00;0.00;;;;;;;;5101181;28;8825;-94
2022/12/06 19:19:36;;;;;;;;;0.00;0.00;;;;;;;;5099872;28;8913;-94
2022/12/06 19:22:03;;;;;;;;;0.00;0.00;;;;;;;;5101284;28;8845;-94
2022/12/06 19:24:31;;;;;;;;;0.00;0.00;;;;;;;;5094347;28;21455;-96
2022/12/06 19:26:59;;;;;;;;;1.00;1.00;;;;;;;;5092556;28;18964;-96
2022/12/06 19:29:30;;;;;;;;;0.00;0.00;;;;;;;;5105334;28;8771;-96
2022/12/06 19:31:56;;;;;;;;;0.00;0.00;;;;;;;;5103426;28;8812;-96
2022/12/06 19:34:24;;;;;;;;;0.00;0.00;;;;;;;;5091379;28;8844;-96
2022/12/06 19:36:53;;;;;;;;;0.00;0.00;;;;;;;;5102337;28;8818;-96
2022/12/06 19:39:19;;;;;;;;;0.00;0.00;;;;;;;;5109447;28;8758;-96
2022/12/06 19:44:43;;;;;;;;;0.00;0.00;;;;;;;;5101262;27;8733;-96
2022/12/06 19:47:24;;;;;;;;;0.00;0.00;;;;;;;;5081407;28;8768;-96
2022/12/06 19:49:49;;;;;;;;;0.00;0.00;;;;;;;;5110737;28;11506;-96
2022/12/06 19:52:36;;;;;;;;;0.00;0.00;;;;;;;;5103345;28;8832;-95
2022/12/06 19:55:02;;;;;;;;;0.00;0.00;;;;;;;;5688132;22;8796;-96
2022/12/06 19:57:27;;;;;;;;;0.00;0.00;;;;;;;;5068252;28;8838;-95
2022/12/06 19:59:54;;;;;;;;;0.00;0.00;;;;;;;;5063929;28;11454;-92
2022/12/06 20:02:19;;;;;;;;;0.00;0.00;;;;;;;;5051040;28;8818;-89
2022/12/06 20:04:45;;;;;;;;;0.00;0.00;;;;;;;;5041497;28;13711;-91
2022/12/06 20:07:11;;;;;;;;;0.00;0.00;;;;;;;;5049062;28;40328;-89
2022/12/06 20:09:36;;;;;;;;;0.00;0.00;;;;;;;;5044962;28;10211;-91
2022/12/06 20:12:03;;;;;;;;;0.00;0.00;;;;;;;;5045695;28;8830;-91
2022/12/06 20:14:31;;;;;;;;;0.00;0.00;;;;;;;;5039831;28;8824;-95
2022/12/06 20:16:56;;;;;;;;;3.00;3.00;;;;;;;;5051239;28;8814;-93
2022/12/06 20:19:23;;;;;;;;;0.00;0.00;;;;;;;;5059208;28;8849;-93
2022/12/06 20:21:48;;;;;;;;;6.33;6.33;;;;;;;;5053916;28;8845;-94
2022/12/06 20:24:15;;;;;;;;;1.00;1.00;;;;;;;;5044146;28;8901;-92
2022/12/06 20:26:40;;;;;;;;;0.00;0.00;;;;;;;;5053921;28;9279;-93
2022/12/06 20:29:06;;;;;;;;;0.00;0.00;;;;;;;;5055320;28;8831;-95
2022/12/06 20:31:31;;;;;;;;;3.00;3.00;;;;;;;;5049375;28;8949;-95
2022/12/06 20:33:58;;;;;;;;;33.00;33.00;;;;;;;;5048103;28;8802;-93
2022/12/06 20:36:24;;;;;;;;;0.00;0.00;;;;;;;;5030176;28;45539;-93
2022/12/06 20:38:52;;;;;;;;;19.00;19.00;;;;;;;;5013939;28;45743;-91
2022/12/06 20:41:19;;;;;;;;;0.00;0.00;;;;;;;;5043074;28;8827;-91
2022/12/06 20:43:44;;;;;;;;;2.67;2.67;;;;;;;;5041686;28;8856;-92
2022/12/06 20:46:14;;;;;;;;;0.00;0.00;;;;;;;;5033987;28;9710;-92
2022/12/06 20:48:39;;;;;;;;;0.00;0.00;;;;;;;;5045434;28;10237;-95
2022/12/06 20:51:09;;;;;;;;;0.00;0.00;;;;;;;;5041131;28;8855;-94
2022/12/06 20:53:35;;;;;;;;;0.00;0.00;;;;;;;;5045387;28;8807;-92
2022/12/06 20:56:04;;;;;;;;;0.00;0.00;;;;;;;;5039718;28;33640;-93
2022/12/06 20:58:29;;;;;;;;;0.00;0.00;;;;;;;;5046757;28;13864;-95
2022/12/06 21:00:55;;;;;;;;;0.00;0.00;;;;;;;;5044334;28;45244;-93
2022/12/06 21:03:20;;;;;;;;;0.00;0.00;;;;;;;;5046268;28;44945;-93
2022/12/06 21:05:45;;;;;;;;;0.00;0.00;;;;;;;;5043306;28;9586;-92
2022/12/06 21:08:10;;;;;;;;;0.00;0.00;;;;;;;;5041214;28;8849;-93
2022/12/06 21:10:36;;;;;;;;;2.33;2.33;;;;;;;;5049527;28;9824;-93
2022/12/06 21:13:01;;;;;;;;;0.00;0.00;;;;;;;;5042039;28;9109;-93
2022/12/06 21:15:26;;;;;;;;;0.00;0.00;;;;;;;;5051420;28;10556;-93
2022/12/06 21:17:51;;;;;;;;;0.00;0.00;;;;;;;;5039825;28;9569;-93
2022/12/06 21:20:16;;;;;;;;;0.00;0.00;;;;;;;;5052075;28;8831;-92
2022/12/06 21:22:42;;;;;;;;;0.00;0.00;;;;;;;;5044450;28;8819;-91
2022/12/06 21:25:07;;;;;;;;;0.00;0.00;;;;;;;;5057171;28;17341;-94
2022/12/06 21:27:32;;;;;;;;;0.00;0.00;;;;;;;;5048241;28;12497;-94
2022/12/06 21:29:57;;;;;;;;;0.33;0.33;;;;;;;;5047825;28;9688;-94
2022/12/06 21:32:24;;;;;;;;;0.00;0.00;;;;;;;;5039898;28;8942;-92
2022/12/06 21:34:52;;;;;;;;;0.00;0.00;;;;;;;;5043103;28;12992;-96
2022/12/06 21:37:17;;;;;;;;;4.00;4.00;;;;;;;;5045228;28;9500;-95
2022/12/06 21:39:46;;;;;;;;;2.33;2.33;;;;;;;;5041190;28;40493;-95
2022/12/06 21:42:14;;;;;;;;;3.00;3.00;;;;;;;;5034350;28;44593;-95
2022/12/06 21:44:39;;;;;;;;;0.00;0.00;;;;;;;;5027473;28;45092;-96
2022/12/06 21:47:04;;;;;;;;;0.00;0.00;;;;;;;;5039665;28;27861;-96
2022/12/06 21:49:37;;;;;;;;;0.00;0.00;;;;;;;;5053497;28;21327;-95
2022/12/06 21:52:02;;;;;;;;;0.00;0.00;;;;;;;;5030272;28;29731;-96
2022/12/06 21:54:28;;;;;;;;;0.00;0.00;;;;;;;;5041330;28;8841;-96
2022/12/06 21:56:53;;;;;;;;;1.00;1.00;;;;;;;;5045722;28;8849;-96
2022/12/06 21:59:18;;;;;;;;;0.00;0.00;;;;;;;;5054244;28;8806;-96
2022/12/06 22:01:44;;;;;;;;;0.00;0.00;;;;;;;;5048732;28;27736;-96
2022/12/06 22:04:09;;;;;;;;;0.00;0.00;;;;;;;;5034836;28;38268;-96